sensor_id;sensor_type;location;lat;lon;timestamp;P1;durP1;ratioP1;P2;durP2;ratioP2
40314;SDS011;26021;45.640;11.302;2022-08-21T00:01:10;2.13;;;1.60;;
40314;SDS011;26021;45.640;11.302;2022-08-21T00:03:38;3.03;;;1.77;;
40314;SDS011;26021;45.640;11.302;2022-08-21T00:06:04;2.30;;;1.70;;
40314;SDS011;26021;45.640;11.302;2022-08-21T00:08:29;3.78;;;1.90;;
40314;SDS011;26021;45.640;11.302;2022-08-21T00:10:55;5.55;;;2.00;;
40314;SDS011;26021;45.640;11.302;2022-08-21T00:13:20;2.20;;;2.05;;
40314;SDS011;26021;45.640;11.302;2022-08-21T00:15:47;7.40;;;2.30;;
40314;SDS011;26021;45.640;11.302;2022-08-21T00:18:13;4.85;;;1.80;;
40314;SDS011;26021;45.640;11.302;2022-08-21T00:20:39;2.22;;;1.95;;
40314;SDS011;26021;45.640;11.302;2022-08-21T00:23:07;3.67;;;2.60;;
40314;SDS011;26021;45.640;11.302;2022-08-21T00:25:32;2.65;;;1.83;;
40314;SDS011;26021;45.640;11.302;2022-08-21T00:27:58;2.05;;;1.80;;
40314;SDS011;26021;45.640;11.302;2022-08-21T00:30:25;2.75;;;2.13;;
40314;SDS011;26021;45.640;11.302;2022-08-21T00:32:52;2.17;;;1.92;;
40314;SDS011;26021;45.640;11.302;2022-08-21T00:35:20;5.13;;;1.80;;
40314;SDS011;26021;45.640;11.302;2022-08-21T00:37:49;2.80;;;1.85;;
40314;SDS011;26021;45.640;11.302;2022-08-21T00:40:16;3.20;;;1.80;;
40314;SDS011;26021;45.640;11.302;2022-08-21T00:42:44;4.05;;;2.55;;
40314;SDS011;26021;45.640;11.302;2022-08-21T00:45:10;2.00;;;1.90;;
40314;SDS011;26021;45.640;11.302;2022-08-21T00:47:36;2.25;;;2.10;;
40314;SDS011;26021;45.640;11.302;2022-08-21T00:50:03;2.60;;;2.00;;
40314;SDS011;26021;45.640;11.302;2022-08-21T00:52:31;4.63;;;1.85;;
40314;SDS011;26021;45.640;11.302;2022-08-21T00:54:59;1.92;;;1.70;;
40314;SDS011;26021;45.640;11.302;2022-08-21T00:57:38;2.28;;;2.13;;
40314;SDS011;26021;45.640;11.302;2022-08-21T01:00:09;2.67;;;1.80;;
40314;SDS011;26021;45.640;11.302;2022-08-21T01:02:36;2.13;;;1.83;;
40314;SDS011;26021;45.640;11.302;2022-08-21T01:05:02;2.55;;;2.00;;
40314;SDS011;26021;45.640;11.302;2022-08-21T01:07:28;3.60;;;1.65;;
40314;SDS011;26021;45.640;11.302;2022-08-21T01:09:54;5.15;;;2.10;;
40314;SDS011;26021;45.640;11.302;2022-08-21T01:12:19;2.22;;;1.90;;
40314;SDS011;26021;45.640;11.302;2022-08-21T01:14:45;3.53;;;2.00;;
40314;SDS011;26021;45.640;11.302;2022-08-21T01:17:11;2.80;;;1.90;;
40314;SDS011;26021;45.640;11.302;2022-08-21T01:19:38;8.40;;;2.30;;
40314;SDS011;26021;45.640;11.302;2022-08-21T01:22:04;2.40;;;1.85;;
40314;SDS011;26021;45.640;11.302;2022-08-21T01:24:30;2.08;;;1.98;;
40314;SDS011;26021;45.640;11.302;2022-08-21T01:26:57;2.90;;;1.88;;
40314;SDS011;26021;45.640;11.302;2022-08-21T01:29:26;1.95;;;1.75;;
40314;SDS011;26021;45.640;11.302;2022-08-21T01:31:57;2.65;;;2.20;;
40314;SDS011;26021;45.640;11.302;2022-08-21T01:34:24;5.60;;;2.15;;
40314;SDS011;26021;45.640;11.302;2022-08-21T01:36:50;3.40;;;1.95;;
40314;SDS011;26021;45.640;11.302;2022-08-21T01:39:16;5.28;;;2.00;;
40314;SDS011;26021;45.640;11.302;2022-08-21T01:41:42;2.03;;;1.67;;
40314;SDS011;26021;45.640;11.302;2022-08-21T01:44:08;5.10;;;1.90;;
40314;SDS011;26021;45.640;11.302;2022-08-21T01:46:33;2.03;;;1.90;;
40314;SDS011;26021;45.640;11.302;2022-08-21T01:48:59;5.47;;;2.00;;
40314;SDS011;26021;45.640;11.302;2022-08-21T01:51:25;2.17;;;1.80;;
40314;SDS011;26021;45.640;11.302;2022-08-21T01:53:51;4.45;;;1.75;;
40314;SDS011;26021;45.640;11.302;2022-08-21T01:56:17;2.35;;;1.70;;
40314;SDS011;26021;45.640;11.302;2022-08-21T01:58:43;6.78;;;2.33;;
40314;SDS011;26021;45.640;11.302;2022-08-21T02:01:10;3.83;;;2.00;;
40314;SDS011;26021;45.640;11.302;2022-08-21T02:03:36;3.80;;;2.05;;
40314;SDS011;26021;45.640;11.302;2022-08-21T02:06:03;4.68;;;2.10;;
40314;SDS011;26021;45.640;11.302;2022-08-21T02:08:30;2.28;;;1.60;;
40314;SDS011;26021;45.640;11.302;2022-08-21T02:10:55;2.85;;;1.90;;
40314;SDS011;26021;45.640;11.302;2022-08-21T02:13:21;3.70;;;1.92;;
40314;SDS011;26021;45.640;11.302;2022-08-21T02:15:46;1.98;;;1.75;;
40314;SDS011;26021;45.640;11.302;2022-08-21T02:18:12;4.65;;;2.00;;
40314;SDS011;26021;45.640;11.302;2022-08-21T02:20:40;2.78;;;2.00;;
40314;SDS011;26021;45.640;11.302;2022-08-21T02:23:07;3.05;;;1.67;;
40314;SDS011;26021;45.640;11.302;2022-08-21T02:25:36;2.00;;;1.88;;
40314;SDS011;26021;45.640;11.302;2022-08-21T02:28:04;2.42;;;1.75;;
40314;SDS011;26021;45.640;11.302;2022-08-21T02:30:33;2.20;;;1.65;;
40314;SDS011;26021;45.640;11.302;2022-08-21T02:33:03;3.25;;;2.10;;
40314;SDS011;26021;45.640;11.302;2022-08-21T02:35:29;3.83;;;1.80;;
40314;SDS011;26021;45.640;11.302;2022-08-21T02:37:57;2.17;;;1.90;;
40314;SDS011;26021;45.640;11.302;2022-08-21T02:40:28;2.25;;;1.77;;
40314;SDS011;26021;45.640;11.302;2022-08-21T02:42:57;2.85;;;1.83;;
40314;SDS011;26021;45.640;11.302;2022-08-21T02:45:23;4.93;;;1.50;;
40314;SDS011;26021;45.640;11.302;2022-08-21T02:47:49;3.03;;;2.00;;
40314;SDS011;26021;45.640;11.302;2022-08-21T02:50:25;4.85;;;1.98;;
40314;SDS011;26021;45.640;11.302;2022-08-21T02:52:52;3.20;;;2.00;;
40314;SDS011;26021;45.640;11.302;2022-08-21T02:55:19;4.03;;;2.35;;
40314;SDS011;26021;45.640;11.302;2022-08-21T02:57:46;2.20;;;2.00;;
40314;SDS011;26021;45.640;11.302;2022-08-21T03:00:13;3.63;;;2.30;;
40314;SDS011;26021;45.640;11.302;2022-08-21T03:02:39;3.38;;;1.70;;
40314;SDS011;26021;45.640;11.302;2022-08-21T03:05:05;3.05;;;2.05;;
40314;SDS011;26021;45.640;11.302;2022-08-21T03:07:32;3.67;;;1.90;;
40314;SDS011;26021;45.640;11.302;2022-08-21T03:09:58;1.83;;;1.67;;
40314;SDS011;26021;45.640;11.302;2022-08-21T03:12:24;2.33;;;1.40;;
40314;SDS011;26021;45.640;11.302;2022-08-21T03:14:49;2.78;;;1.60;;
40314;SDS011;26021;45.640;11.302;2022-08-21T03:17:15;2.35;;;2.15;;
40314;SDS011;26021;45.640;11.302;2022-08-21T03:19:40;1.85;;;1.75;;
40314;SDS011;26021;45.640;11.302;2022-08-21T03:22:06;2.80;;;1.88;;
40314;SDS011;26021;45.640;11.302;2022-08-21T03:24:31;2.10;;;1.67;;
40314;SDS011;26021;45.640;11.302;2022-08-21T03:26:57;2.10;;;1.60;;
40314;SDS011;26021;45.640;11.302;2022-08-21T03:29:22;3.58;;;1.40;;
40314;SDS011;26021;45.640;11.302;2022-08-21T03:31:48;1.63;;;1.50;;
40314;SDS011;26021;45.640;11.302;2022-08-21T03:34:14;5.47;;;1.73;;
40314;SDS011;26021;45.640;11.302;2022-08-21T03:36:39;2.95;;;1.52;;
40314;SDS011;26021;45.640;11.302;2022-08-21T03:39:05;3.90;;;2.13;;
40314;SDS011;26021;45.640;11.302;2022-08-21T03:41:30;4.10;;;1.80;;
40314;SDS011;26021;45.640;11.302;2022-08-21T03:43:56;2.28;;;1.45;;
40314;SDS011;26021;45.640;11.302;2022-08-21T03:46:21;2.17;;;1.52;;
40314;SDS011;26021;45.640;11.302;2022-08-21T03:48:47;1.67;;;1.58;;
40314;SDS011;26021;45.640;11.302;2022-08-21T03:51:13;1.95;;;1.48;;
40314;SDS011;26021;45.640;11.302;2022-08-21T03:53:40;4.97;;;1.75;;
40314;SDS011;26021;45.640;11.302;2022-08-21T03:56:06;1.75;;;1.65;;
40314;SDS011;26021;45.640;11.302;2022-08-21T03:58:31;2.22;;;1.50;;
40314;SDS011;26021;45.640;11.302;2022-08-21T04:00:58;2.10;;;1.90;;
40314;SDS011;26021;45.640;11.302;2022-08-21T04:03:26;3.22;;;1.50;;
40314;SDS011;26021;45.640;11.302;2022-08-21T04:05:52;2.10;;;1.60;;
40314;SDS011;26021;45.640;11.302;2022-08-21T04:08:17;3.78;;;1.75;;
40314;SDS011;26021;45.640;11.302;2022-08-21T04:10:47;1.92;;;1.55;;
40314;SDS011;26021;45.640;11.302;2022-08-21T04:13:17;1.73;;;1.50;;
40314;SDS011;26021;45.640;11.302;2022-08-21T04:15:42;2.15;;;1.50;;
40314;SDS011;26021;45.640;11.302;2022-08-21T04:18:08;2.53;;;1.38;;
40314;SDS011;26021;45.640;11.302;2022-08-21T04:20:34;2.40;;;1.30;;
40314;SDS011;26021;45.640;11.302;2022-08-21T04:23:00;3.83;;;1.60;;
40314;SDS011;26021;45.640;11.302;2022-08-21T04:25:27;2.97;;;1.20;;
40314;SDS011;26021;45.640;11.302;2022-08-21T04:27:52;2.15;;;1.40;;
40314;SDS011;26021;45.640;11.302;2022-08-21T04:30:21;1.33;;;1.23;;
40314;SDS011;26021;45.640;11.302;2022-08-21T04:32:47;1.77;;;1.45;;
40314;SDS011;26021;45.640;11.302;2022-08-21T04:35:15;2.13;;;1.33;;
40314;SDS011;26021;45.640;11.302;2022-08-21T04:37:46;2.67;;;1.30;;
40314;SDS011;26021;45.640;11.302;2022-08-21T04:40:13;1.25;;;1.20;;
40314;SDS011;26021;45.640;11.302;2022-08-21T04:42:50;3.30;;;1.10;;
40314;SDS011;26021;45.640;11.302;2022-08-21T04:45:20;1.17;;;1.10;;
40314;SDS011;26021;45.640;11.302;2022-08-21T04:47:48;5.03;;;1.58;;
40314;SDS011;26021;45.640;11.302;2022-08-21T04:50:15;3.58;;;1.50;;
40314;SDS011;26021;45.640;11.302;2022-08-21T04:52:41;3.03;;;1.33;;
40314;SDS011;26021;45.640;11.302;2022-08-21T04:55:08;4.05;;;1.98;;
40314;SDS011;26021;45.640;11.302;2022-08-21T04:57:34;1.90;;;1.80;;
40314;SDS011;26021;45.640;11.302;2022-08-21T05:00:00;2.75;;;1.50;;
40314;SDS011;26021;45.640;11.302;2022-08-21T05:02:30;2.10;;;1.50;;
40314;SDS011;26021;45.640;11.302;2022-08-21T05:04:58;3.45;;;1.88;;
40314;SDS011;26021;45.640;11.302;2022-08-21T05:07:25;2.88;;;2.00;;
40314;SDS011;26021;45.640;11.302;2022-08-21T05:09:53;3.85;;;2.22;;
40314;SDS011;26021;45.640;11.302;2022-08-21T05:12:19;2.47;;;1.80;;
40314;SDS011;26021;45.640;11.302;2022-08-21T05:14:45;1.80;;;1.70;;
40314;SDS011;26021;45.640;11.302;2022-08-21T05:17:12;4.22;;;1.42;;
40314;SDS011;26021;45.640;11.302;2022-08-21T05:19:37;1.80;;;1.60;;
40314;SDS011;26021;45.640;11.302;2022-08-21T05:22:03;1.77;;;1.48;;
40314;SDS011;26021;45.640;11.302;2022-08-21T05:24:29;4.25;;;1.50;;
40314;SDS011;26021;45.640;11.302;2022-08-21T05:26:54;2.90;;;1.45;;
40314;SDS011;26021;45.640;11.302;2022-08-21T05:29:20;1.77;;;1.60;;
40314;SDS011;26021;45.640;11.302;2022-08-21T05:31:46;4.20;;;1.90;;
40314;SDS011;26021;45.640;11.302;2022-08-21T05:34:13;4.47;;;1.65;;
40314;SDS011;26021;45.640;11.302;2022-08-21T05:36:40;3.60;;;1.55;;
40314;SDS011;26021;45.640;11.302;2022-08-21T05:39:05;1.77;;;1.65;;
40314;SDS011;26021;45.640;11.302;2022-08-21T05:41:31;2.78;;;1.67;;
40314;SDS011;26021;45.640;11.302;2022-08-21T05:43:56;4.30;;;1.98;;
40314;SDS011;26021;45.640;11.302;2022-08-21T05:46:22;3.13;;;2.10;;
40314;SDS011;26021;45.640;11.302;2022-08-21T05:48:47;2.38;;;2.03;;
40314;SDS011;26021;45.640;11.302;2022-08-21T05:51:13;3.95;;;2.17;;
40314;SDS011;26021;45.640;11.302;2022-08-21T05:53:40;6.22;;;2.70;;
40314;SDS011;26021;45.640;11.302;2022-08-21T05:56:07;5.40;;;2.70;;
40314;SDS011;26021;45.640;11.302;2022-08-21T05:58:33;4.10;;;2.90;;
40314;SDS011;26021;45.640;11.302;2022-08-21T06:00:59;7.10;;;3.70;;
40314;SDS011;26021;45.640;11.302;2022-08-21T06:03:28;4.53;;;3.60;;
40314;SDS011;26021;45.640;11.302;2022-08-21T06:05:56;5.75;;;3.78;;
40314;SDS011;26021;45.640;11.302;2022-08-21T06:08:22;4.80;;;3.35;;
40314;SDS011;26021;45.640;11.302;2022-08-21T06:10:48;6.50;;;3.67;;
40314;SDS011;26021;45.640;11.302;2022-08-21T06:13:15;5.70;;;3.28;;
40314;SDS011;26021;45.640;11.302;2022-08-21T06:15:42;5.03;;;3.08;;
40314;SDS011;26021;45.640;11.302;2022-08-21T06:18:08;2.55;;;1.73;;
40314;SDS011;26021;45.640;11.302;2022-08-21T06:20:33;2.15;;;1.38;;
40314;SDS011;26021;45.640;11.302;2022-08-21T06:22:59;1.52;;;1.25;;
40314;SDS011;26021;45.640;11.302;2022-08-21T06:25:25;1.63;;;1.20;;
40314;SDS011;26021;45.640;11.302;2022-08-21T06:27:50;1.70;;;1.60;;
40314;SDS011;26021;45.640;11.302;2022-08-21T06:30:16;1.40;;;1.00;;
40314;SDS011;26021;45.640;11.302;2022-08-21T06:32:42;1.63;;;0.80;;
40314;SDS011;26021;45.640;11.302;2022-08-21T06:35:08;1.33;;;1.00;;
40314;SDS011;26021;45.640;11.302;2022-08-21T06:37:34;1.05;;;1.00;;
40314;SDS011;26021;45.640;11.302;2022-08-21T06:40:00;1.13;;;1.02;;
40314;SDS011;26021;45.640;11.302;2022-08-21T06:42:26;2.33;;;1.10;;
40314;SDS011;26021;45.640;11.302;2022-08-21T06:44:53;2.72;;;1.20;;
40314;SDS011;26021;45.640;11.302;2022-08-21T06:47:18;2.40;;;1.60;;
40314;SDS011;26021;45.640;11.302;2022-08-21T06:49:44;1.05;;;0.93;;
40314;SDS011;26021;45.640;11.302;2022-08-21T06:52:10;1.42;;;0.98;;
40314;SDS011;26021;45.640;11.302;2022-08-21T06:54:55;2.80;;;1.05;;
40314;SDS011;26021;45.640;11.302;2022-08-21T06:57:20;1.33;;;1.20;;
40314;SDS011;26021;45.640;11.302;2022-08-21T06:59:46;2.00;;;1.20;;
40314;SDS011;26021;45.640;11.302;2022-08-21T07:02:12;1.45;;;1.00;;
40314;SDS011;26021;45.640;11.302;2022-08-21T07:04:37;1.17;;;1.08;;
40314;SDS011;26021;45.640;11.302;2022-08-21T07:07:03;0.88;;;0.80;;
40314;SDS011;26021;45.640;11.302;2022-08-21T07:09:28;2.00;;;1.15;;
40314;SDS011;26021;45.640;11.302;2022-08-21T07:11:55;2.22;;;1.45;;
40314;SDS011;26021;45.640;11.302;2022-08-21T07:14:21;0.90;;;0.90;;
40314;SDS011;26021;45.640;11.302;2022-08-21T07:16:47;7.15;;;1.00;;
40314;SDS011;26021;45.640;11.302;2022-08-21T07:19:13;0.77;;;0.77;;
40314;SDS011;26021;45.640;11.302;2022-08-21T07:21:39;1.25;;;0.70;;
40314;SDS011;26021;45.640;11.302;2022-08-21T07:24:05;1.35;;;0.77;;
40314;SDS011;26021;45.640;11.302;2022-08-21T07:26:30;0.70;;;0.70;;
40314;SDS011;26021;45.640;11.302;2022-08-21T07:28:55;1.70;;;0.80;;
40314;SDS011;26021;45.640;11.302;2022-08-21T07:31:22;0.80;;;0.80;;
40314;SDS011;26021;45.640;11.302;2022-08-21T07:33:50;0.82;;;0.77;;
40314;SDS011;26021;45.640;11.302;2022-08-21T07:36:15;1.35;;;0.80;;
40314;SDS011;26021;45.640;11.302;2022-08-21T07:38:42;0.77;;;0.77;;
40314;SDS011;26021;45.640;11.302;2022-08-21T07:41:21;2.25;;;0.65;;
40314;SDS011;26021;45.640;11.302;2022-08-21T07:43:49;0.60;;;0.60;;
40314;SDS011;26021;45.640;11.302;2022-08-21T07:46:15;0.75;;;0.75;;
40314;SDS011;26021;45.640;11.302;2022-08-21T07:48:40;0.57;;;0.57;;
40314;SDS011;26021;45.640;11.302;2022-08-21T07:51:07;3.10;;;0.70;;
40314;SDS011;26021;45.640;11.302;2022-08-21T07:53:36;0.80;;;0.80;;
40314;SDS011;26021;45.640;11.302;2022-08-21T07:56:03;0.80;;;0.80;;
40314;SDS011;26021;45.640;11.302;2022-08-21T07:58:30;1.00;;;0.90;;
40314;SDS011;26021;45.640;11.302;2022-08-21T08:00:56;1.83;;;1.00;;
40314;SDS011;26021;45.640;11.302;2022-08-21T08:03:22;0.50;;;0.50;;
40314;SDS011;26021;45.640;11.302;2022-08-21T08:05:47;0.98;;;0.77;;
40314;SDS011;26021;45.640;11.302;2022-08-21T08:08:13;0.80;;;0.60;;
40314;SDS011;26021;45.640;11.302;2022-08-21T08:10:38;0.95;;;0.70;;
40314;SDS011;26021;45.640;11.302;2022-08-21T08:13:04;0.50;;;0.50;;
40314;SDS011;26021;45.640;11.302;2022-08-21T08:15:30;0.73;;;0.73;;
40314;SDS011;26021;45.640;11.302;2022-08-21T08:17:56;1.85;;;0.70;;
40314;SDS011;26021;45.640;11.302;2022-08-21T08:20:22;1.17;;;0.77;;
40314;SDS011;26021;45.640;11.302;2022-08-21T08:22:51;1.95;;;0.80;;
40314;SDS011;26021;45.640;11.302;2022-08-21T08:25:17;1.48;;;0.70;;
40314;SDS011;26021;45.640;11.302;2022-08-21T08:27:44;1.42;;;0.95;;
40314;SDS011;26021;45.640;11.302;2022-08-21T08:30:11;1.70;;;0.88;;
40314;SDS011;26021;45.640;11.302;2022-08-21T08:32:38;0.73;;;0.73;;
40314;SDS011;26021;45.640;11.302;2022-08-21T08:35:04;1.20;;;1.20;;
40314;SDS011;26021;45.640;11.302;2022-08-21T08:37:31;0.50;;;0.50;;
40314;SDS011;26021;45.640;11.302;2022-08-21T08:39:57;2.83;;;0.55;;
40314;SDS011;26021;45.640;11.302;2022-08-21T08:45:00;0.57;;;0.57;;
40314;SDS011;26021;45.640;11.302;2022-08-21T08:47:30;1.00;;;0.77;;
40314;SDS011;26021;45.640;11.302;2022-08-21T08:52:51;2.15;;;0.93;;
40314;SDS011;26021;45.640;11.302;2022-08-21T08:55:21;2.35;;;1.05;;
40314;SDS011;26021;45.640;11.302;2022-08-21T08:57:51;1.30;;;0.70;;
40314;SDS011;26021;45.640;11.302;2022-08-21T09:00:19;2.20;;;0.80;;
40314;SDS011;26021;45.640;11.302;2022-08-21T09:02:47;1.85;;;0.70;;
40314;SDS011;26021;45.640;11.302;2022-08-21T09:05:23;0.73;;;0.73;;
40314;SDS011;26021;45.640;11.302;2022-08-21T09:11:04;0.70;;;0.70;;
40314;SDS011;26021;45.640;11.302;2022-08-21T09:22:08;0.63;;;0.63;;
40314;SDS011;26021;45.640;11.302;2022-08-21T09:27:25;1.07;;;0.60;;
40314;SDS011;26021;45.640;11.302;2022-08-21T09:29:52;1.80;;;0.90;;
40314;SDS011;26021;45.640;11.302;2022-08-21T09:32:20;0.70;;;0.70;;
40314;SDS011;26021;45.640;11.302;2022-08-21T09:37:26;1.15;;;0.70;;
40314;SDS011;26021;45.640;11.302;2022-08-21T09:39:54;0.80;;;0.80;;
40314;SDS011;26021;45.640;11.302;2022-08-21T09:42:23;0.68;;;0.68;;
40314;SDS011;26021;45.640;11.302;2022-08-21T09:45:04;1.52;;;0.90;;
40314;SDS011;26021;45.640;11.302;2022-08-21T09:47:37;0.82;;;0.82;;
40314;SDS011;26021;45.640;11.302;2022-08-21T09:50:10;0.70;;;0.70;;
40314;SDS011;26021;45.640;11.302;2022-08-21T09:52:58;0.85;;;0.60;;
40314;SDS011;26021;45.640;11.302;2022-08-21T09:58:21;3.40;;;2.20;;
40314;SDS011;26021;45.640;11.302;2022-08-21T10:01:00;1.85;;;1.75;;
40314;SDS011;26021;45.640;11.302;2022-08-21T10:03:28;2.17;;;0.90;;
40314;SDS011;26021;45.640;11.302;2022-08-21T10:05:55;1.27;;;0.85;;
40314;SDS011;26021;45.640;11.302;2022-08-21T10:08:25;0.70;;;0.70;;
40314;SDS011;26021;45.640;11.302;2022-08-21T10:10:54;0.98;;;0.70;;
40314;SDS011;26021;45.640;11.302;2022-08-21T10:16:47;0.70;;;0.70;;
40314;SDS011;26021;45.640;11.302;2022-08-21T10:24:31;1.05;;;0.73;;
40314;SDS011;26021;45.640;11.302;2022-08-21T10:46:13;0.60;;;0.60;;
40314;SDS011;26021;45.640;11.302;2022-08-21T10:48:50;1.58;;;0.77;;
40314;SDS011;26021;45.640;11.302;2022-08-21T10:51:35;0.52;;;0.50;;
40314;SDS011;26021;45.640;11.302;2022-08-21T10:56:58;0.60;;;0.60;;
40314;SDS011;26021;45.640;11.302;2022-08-21T10:59:39;1.90;;;0.88;;
40314;SDS011;26021;45.640;11.302;2022-08-21T11:08:09;0.32;;;0.32;;
40314;SDS011;26021;45.640;11.302;2022-08-21T11:10:42;0.50;;;0.50;;
40314;SDS011;26021;45.640;11.302;2022-08-21T11:13:12;0.43;;;0.43;;
40314;SDS011;26021;45.640;11.302;2022-08-21T11:18:39;1.55;;;0.40;;
40314;SDS011;26021;45.640;11.302;2022-08-21T11:24:01;1.08;;;0.50;;
40314;SDS011;26021;45.640;11.302;2022-08-21T11:26:57;0.50;;;0.50;;
40314;SDS011;26021;45.640;11.302;2022-08-21T11:29:31;0.63;;;0.50;;
40314;SDS011;26021;45.640;11.302;2022-08-21T11:54:52;2.45;;;0.45;;
40314;SDS011;26021;45.640;11.302;2022-08-21T11:57:25;0.38;;;0.38;;
40314;SDS011;26021;45.640;11.302;2022-08-21T11:59:58;0.50;;;0.47;;
40314;SDS011;26021;45.640;11.302;2022-08-21T12:02:29;0.30;;;0.30;;
40314;SDS011;26021;45.640;11.302;2022-08-21T12:05:06;0.63;;;0.40;;
40314;SDS011;26021;45.640;11.302;2022-08-21T12:07:39;0.70;;;0.60;;
40314;SDS011;26021;45.640;11.302;2022-08-21T12:10:08;0.50;;;0.50;;
40314;SDS011;26021;45.640;11.302;2022-08-21T12:15:13;0.60;;;0.50;;
40314;SDS011;26021;45.640;11.302;2022-08-21T12:18:02;0.52;;;0.45;;
40314;SDS011;26021;45.640;11.302;2022-08-21T12:20:41;0.40;;;0.40;;
40314;SDS011;26021;45.640;11.302;2022-08-21T12:25:37;0.68;;;0.68;;
40314;SDS011;26021;45.640;11.302;2022-08-21T12:28:15;1.70;;;0.60;;
40314;SDS011;26021;45.640;11.302;2022-08-21T12:30:47;0.60;;;0.60;;
40314;SDS011;26021;45.640;11.302;2022-08-21T12:36:00;0.65;;;0.50;;
40314;SDS011;26021;45.640;11.302;2022-08-21T12:38:42;0.57;;;0.57;;
40314;SDS011;26021;45.640;11.302;2022-08-21T12:41:18;0.50;;;0.50;;
40314;SDS011;26021;45.640;11.302;2022-08-21T12:43:51;0.57;;;0.50;;
40314;SDS011;26021;45.640;11.302;2022-08-21T12:46:29;1.25;;;0.70;;
40314;SDS011;26021;45.640;11.302;2022-08-21T12:49:02;0.60;;;0.60;;
40314;SDS011;26021;45.640;11.302;2022-08-21T12:51:40;0.30;;;0.30;;
40314;SDS011;26021;45.640;11.302;2022-08-21T12:54:29;0.65;;;0.57;;
40314;SDS011;26021;45.640;11.302;2022-08-21T12:56:59;0.40;;;0.40;;
40314;SDS011;26021;45.640;11.302;2022-08-21T12:59:30;0.50;;;0.50;;
40314;SDS011;26021;45.640;11.302;2022-08-21T13:01:56;0.68;;;0.40;;
40314;SDS011;26021;45.640;11.302;2022-08-21T13:04:34;0.70;;;0.70;;
40314;SDS011;26021;45.640;11.302;2022-08-21T13:07:05;1.85;;;0.50;;
40314;SDS011;26021;45.640;11.302;2022-08-21T13:09:36;0.40;;;0.40;;
40314;SDS011;26021;45.640;11.302;2022-08-21T13:12:11;1.00;;;0.40;;
40314;SDS011;26021;45.640;11.302;2022-08-21T13:14:39;0.47;;;0.47;;
40314;SDS011;26021;45.640;11.302;2022-08-21T13:17:06;0.50;;;0.50;;
40314;SDS011;26021;45.640;11.302;2022-08-21T13:19:34;0.63;;;0.55;;
40314;SDS011;26021;45.640;11.302;2022-08-21T13:22:00;0.80;;;0.80;;
40314;SDS011;26021;45.640;11.302;2022-08-21T13:24:30;0.30;;;0.30;;
40314;SDS011;26021;45.640;11.302;2022-08-21T13:26:58;0.63;;;0.63;;
40314;SDS011;26021;45.640;11.302;2022-08-21T13:29:29;1.63;;;0.60;;
40314;SDS011;26021;45.640;11.302;2022-08-21T13:31:58;1.50;;;0.55;;
40314;SDS011;26021;45.640;11.302;2022-08-21T13:34:30;0.50;;;0.50;;
40314;SDS011;26021;45.640;11.302;2022-08-21T13:36:59;0.93;;;0.70;;
40314;SDS011;26021;45.640;11.302;2022-08-21T13:39:28;0.40;;;0.40;;
40314;SDS011;26021;45.640;11.302;2022-08-21T13:41:55;2.50;;;0.73;;
40314;SDS011;26021;45.640;11.302;2022-08-21T13:44:34;0.50;;;0.50;;
40314;SDS011;26021;45.640;11.302;2022-08-21T13:47:09;1.42;;;0.40;;
40314;SDS011;26021;45.640;11.302;2022-08-21T13:49:39;1.75;;;0.70;;
40314;SDS011;26021;45.640;11.302;2022-08-21T13:52:19;0.57;;;0.57;;
40314;SDS011;26021;45.640;11.302;2022-08-21T13:54:57;0.88;;;0.65;;
40314;SDS011;26021;45.640;11.302;2022-08-21T13:57:34;0.73;;;0.73;;
40314;SDS011;26021;45.640;11.302;2022-08-21T14:00:11;0.60;;;0.60;;
40314;SDS011;26021;45.640;11.302;2022-08-21T14:03:06;2.95;;;0.85;;
40314;SDS011;26021;45.640;11.302;2022-08-21T14:05:37;0.73;;;0.73;;
40314;SDS011;26021;45.640;11.302;2022-08-21T14:08:12;0.68;;;0.68;;
40314;SDS011;26021;45.640;11.302;2022-08-21T14:10:44;1.73;;;0.63;;
40314;SDS011;26021;45.640;11.302;2022-08-21T14:13:34;0.90;;;0.70;;
40314;SDS011;26021;45.640;11.302;2022-08-21T14:16:03;0.60;;;0.60;;
40314;SDS011;26021;45.640;11.302;2022-08-21T14:18:44;0.50;;;0.50;;
40314;SDS011;26021;45.640;11.302;2022-08-21T14:21:22;1.95;;;0.50;;
40314;SDS011;26021;45.640;11.302;2022-08-21T14:23:59;0.60;;;0.60;;
40314;SDS011;26021;45.640;11.302;2022-08-21T14:26:28;0.70;;;0.47;;
40314;SDS011;26021;45.640;11.302;2022-08-21T14:28:57;0.60;;;0.60;;
40314;SDS011;26021;45.640;11.302;2022-08-21T14:31:27;0.70;;;0.70;;
40314;SDS011;26021;45.640;11.302;2022-08-21T14:33:55;1.52;;;0.57;;
40314;SDS011;26021;45.640;11.302;2022-08-21T14:36:21;0.50;;;0.50;;
40314;SDS011;26021;45.640;11.302;2022-08-21T14:38:47;0.60;;;0.60;;
40314;SDS011;26021;45.640;11.302;2022-08-21T14:41:22;1.52;;;0.50;;
40314;SDS011;26021;45.640;11.302;2022-08-21T14:43:52;0.50;;;0.50;;
40314;SDS011;26021;45.640;11.302;2022-08-21T14:46:22;0.77;;;0.60;;
40314;SDS011;26021;45.640;11.302;2022-08-21T14:48:50;0.60;;;0.60;;
40314;SDS011;26021;45.640;11.302;2022-08-21T14:51:16;0.63;;;0.52;;
40314;SDS011;26021;45.640;11.302;2022-08-21T14:53:41;3.70;;;0.80;;
40314;SDS011;26021;45.640;11.302;2022-08-21T14:56:07;0.70;;;0.70;;
40314;SDS011;26021;45.640;11.302;2022-08-21T14:58:35;0.52;;;0.52;;
40314;SDS011;26021;45.640;11.302;2022-08-21T15:01:04;0.60;;;0.60;;
40314;SDS011;26021;45.640;11.302;2022-08-21T15:03:31;1.35;;;0.90;;
40314;SDS011;26021;45.640;11.302;2022-08-21T15:05:57;0.63;;;0.60;;
40314;SDS011;26021;45.640;11.302;2022-08-21T15:08:23;0.98;;;0.98;;
40314;SDS011;26021;45.640;11.302;2022-08-21T15:10:49;0.60;;;0.60;;
40314;SDS011;26021;45.640;11.302;2022-08-21T15:13:16;0.98;;;0.77;;
40314;SDS011;26021;45.640;11.302;2022-08-21T15:15:43;0.88;;;0.65;;
40314;SDS011;26021;45.640;11.302;2022-08-21T15:18:10;0.45;;;0.45;;
40314;SDS011;26021;45.640;11.302;2022-08-21T15:20:36;1.30;;;0.60;;
40314;SDS011;26021;45.640;11.302;2022-08-21T15:23:03;0.70;;;0.70;;
40314;SDS011;26021;45.640;11.302;2022-08-21T15:25:29;0.82;;;0.70;;
40314;SDS011;26021;45.640;11.302;2022-08-21T15:27:55;0.68;;;0.68;;
40314;SDS011;26021;45.640;11.302;2022-08-21T15:30:21;1.70;;;0.75;;
40314;SDS011;26021;45.640;11.302;2022-08-21T15:32:47;0.80;;;0.80;;
40314;SDS011;26021;45.640;11.302;2022-08-21T15:35:13;1.10;;;0.70;;
40314;SDS011;26021;45.640;11.302;2022-08-21T15:37:38;3.30;;;0.70;;
40314;SDS011;26021;45.640;11.302;2022-08-21T15:40:04;0.70;;;0.70;;
40314;SDS011;26021;45.640;11.302;2022-08-21T15:42:32;0.85;;;0.70;;
40314;SDS011;26021;45.640;11.302;2022-08-21T15:44:58;0.80;;;0.80;;
40314;SDS011;26021;45.640;11.302;2022-08-21T15:47:28;2.15;;;0.70;;
40314;SDS011;26021;45.640;11.302;2022-08-21T15:49:56;2.05;;;0.60;;
40314;SDS011;26021;45.640;11.302;2022-08-21T15:52:22;0.77;;;0.73;;
40314;SDS011;26021;45.640;11.302;2022-08-21T15:54:48;0.85;;;0.77;;
40314;SDS011;26021;45.640;11.302;2022-08-21T15:57:15;0.70;;;0.70;;
40314;SDS011;26021;45.640;11.302;2022-08-21T15:59:43;0.77;;;0.77;;
40314;SDS011;26021;45.640;11.302;2022-08-21T16:02:15;3.28;;;0.80;;
40314;SDS011;26021;45.640;11.302;2022-08-21T16:04:44;0.88;;;0.70;;
40314;SDS011;26021;45.640;11.302;2022-08-21T16:07:09;2.28;;;0.93;;
40314;SDS011;26021;45.640;11.302;2022-08-21T16:09:35;2.25;;;0.93;;
40314;SDS011;26021;45.640;11.302;2022-08-21T16:12:01;0.70;;;0.70;;
40314;SDS011;26021;45.640;11.302;2022-08-21T16:14:28;1.08;;;0.88;;
40314;SDS011;26021;45.640;11.302;2022-08-21T16:16:55;0.80;;;0.80;;
40314;SDS011;26021;45.640;11.302;2022-08-21T16:19:21;2.50;;;0.77;;